Time;durP1;ratioP1;P1;durP2;ratioP2;P2;SDS_P1;SDS_P2;PMS_P1;PMS_P2;Temp;Humidity;BMP_temperature;BMP_pressure;BME280_temperature;BME280_humidity;BME280_pressure;Samples;Min_cycle;Max_cycle;Signal;HPM_P1;HPM_P2
2021/11/24 00:01:48;;;;;;;15.77;8.50;;;;;;;-0.38;91.67;101495.69;20816828;28;20091;-68
2021/11/24 00:11:49;;;;;;;17.02;7.90;;;;;;;-0.46;91.58;101483.28;20817411;28;20041;-69
2021/11/24 00:21:51;;;;;;;17.08;8.20;;;;;;;-0.54;91.92;101486.34;20817135;28;20049;-69
2021/11/24 00:31:52;;;;;;;22.52;8.27;;;;;;;-0.48;91.71;101480.59;20816601;28;20426;-69
2021/11/24 00:41:54;;;;;;;16.88;8.82;;;;;;;-0.41;91.65;101474.94;20816720;28;20050;-69
2021/11/24 00:51:55;;;;;;;16.17;7.97;;;;;;;-0.45;91.59;101470.47;20815486;28;20050;-69
2021/11/24 01:01:57;;;;;;;15.27;8.27;;;;;;;-0.52;91.92;101476.16;20814688;28;20049;-68
2021/11/24 01:11:58;;;;;;;17.17;8.80;;;;;;;-0.54;92.57;101464.88;20822857;28;20045;-68
2021/11/24 01:22:00;;;;;;;20.20;9.35;;;;;;;-0.60;92.74;101457.78;20830741;28;20123;-68
2021/11/24 01:32:03;;;;;;;20.17;9.85;;;;;;;-0.62;92.86;101459.41;20829587;28;20474;-69
2021/11/24 01:42:05;;;;;;;17.98;9.43;;;;;;;-0.69;93.75;101448.75;20827710;28;20080;-68
2021/11/24 01:52:08;;;;;;;19.27;9.57;;;;;;;-0.74;93.56;101453.69;20830523;28;20045;-68
2021/11/24 02:02:10;;;;;;;18.40;10.02;;;;;;;-0.72;94.03;101443.47;20826816;28;20042;-68
2021/11/24 02:12:15;;;;;;;19.77;10.57;;;;;;;-0.64;94.32;101432.72;20826066;28;20421;-68
2021/11/24 02:22:16;;;;;;;22.33;11.98;;;;;;;-0.76;94.70;101428.72;20824490;28;20054;-68
2021/11/24 02:32:18;;;;;;;19.02;9.63;;;;;;;-0.89;94.22;101414.41;20824369;28;20054;-68
2021/11/24 02:42:19;;;;;;;22.33;11.73;;;;;;;-0.87;94.78;101403.38;20824478;28;20172;-68
2021/11/24 02:52:23;;;;;;;28.30;13.20;;;;;;;-0.89;95.26;101392.16;20823587;28;20120;-69
2021/11/24 03:02:26;;;;;;;30.13;12.93;;;;;;;-0.84;94.99;101393.25;20821155;28;20368;-70
2021/11/24 03:12:28;;;;;;;29.63;15.00;;;;;;;-0.90;95.57;101386.94;20821760;28;20171;-70
2021/11/24 03:22:29;;;;;;;25.73;13.60;;;;;;;-0.97;96.05;101379.75;20821117;28;20050;-71
2021/11/24 03:32:31;;;;;;;28.55;13.82;;;;;;;-1.05;95.76;101367.44;20819902;28;20041;-71
2021/11/24 03:42:33;;;;;;;23.70;12.63;;;;;;;-1.28;95.81;101346.59;20819780;28;20054;-70
2021/11/24 03:52:35;;;;;;;24.80;12.82;;;;;;;-1.40;95.58;101345.19;20819041;28;20046;-71
2021/11/24 04:02:37;;;;;;;27.13;13.38;;;;;;;-1.51;96.11;101343.81;20817757;28;20045;-68
2021/11/24 04:12:42;;;;;;;23.17;12.60;;;;;;;-1.50;96.53;101342.13;20817737;28;20128;-68
2021/11/24 04:22:44;;;;;;;25.83;13.45;;;;;;;-1.64;95.80;101333.75;20817479;28;20465;-69
2021/11/24 04:32:46;;;;;;;23.17;13.73;;;;;;;-1.76;95.88;101325.47;20817074;28;20049;-70
2021/11/24 04:42:49;;;;;;;29.05;14.68;;;;;;;-1.68;97.00;101326.69;20818978;28;20107;-70
2021/11/24 04:52:50;;;;;;;28.58;14.23;;;;;;;-1.59;97.43;101319.44;20831832;28;20045;-70
2021/11/24 05:02:52;;;;;;;28.08;15.35;;;;;;;-1.69;96.83;101313.00;20831660;28;20045;-69
2021/11/24 05:12:55;;;;;;;29.15;15.07;;;;;;;-1.70;97.14;101315.50;20831051;28;20132;-69
2021/11/24 05:23:04;;;;;;;29.38;15.32;;;;;;;-1.40;98.41;101313.50;20829533;28;20057;-70
2021/11/24 05:33:05;;;;;;;29.90;15.40;;;;;;;-1.21;98.34;101303.28;20827438;28;20049;-69
2021/11/24 05:43:07;;;;;;;37.80;17.33;;;;;;;-1.11;97.50;101291.72;20828675;28;20634;-70
2021/11/24 05:53:09;;;;;;;38.00;17.60;;;;;;;-1.10;97.25;101294.38;20827503;28;20080;-71
2021/11/24 06:03:11;;;;;;;38.13;18.35;;;;;;;-1.04;97.33;101293.78;20826075;28;20057;-68
2021/11/24 06:13:12;;;;;;;39.13;19.48;;;;;;;-1.08;97.10;101289.31;20825768;28;20466;-70
2021/11/24 06:23:14;;;;;;;41.10;19.75;;;;;;;-1.09;96.75;101277.28;20825081;28;20107;-70
2021/11/24 06:33:16;;;;;;;45.10;21.50;;;;;;;-1.12;96.66;101284.81;20823617;28;20042;-69
2021/11/24 06:43:17;;;;;;;41.60;21.10;;;;;;;-1.10;96.75;101285.78;20824054;28;20198;-69
2021/11/24 06:53:19;;;;;;;38.30;19.75;;;;;;;-1.11;96.82;101289.16;20822784;28;20057;-69
2021/11/24 07:03:20;;;;;;;38.03;19.70;;;;;;;-1.18;97.17;101294.84;20821765;28;20049;-68
2021/11/24 07:13:22;;;;;;;39.83;18.65;;;;;;;-1.31;96.21;101280.53;20842691;28;20140;-68
2021/11/24 07:23:24;;;;;;;42.35;19.50;;;;;;;-1.38;96.39;101294.78;20822576;28;20053;-68
2021/11/24 07:33:25;;;;;;;38.47;19.88;;;;;;;-1.33;96.85;101288.19;20821428;28;20461;-68
2021/11/24 07:43:27;;;;;;;40.50;18.92;;;;;;;-0.94;97.08;101282.22;20820435;28;20564;-68
2021/11/24 07:53:28;;;;;;;40.03;19.42;;;;;;;-0.75;96.67;101278.78;20819971;28;20400;-69
2021/11/24 08:03:30;;;;;;;37.63;18.27;;;;;;;-0.58;96.01;101267.50;20818651;28;20452;-70
2021/11/24 08:13:32;;;;;;;53.10;23.98;;;;;;;-0.48;95.55;101251.66;20811067;28;20038;-69
2021/11/24 08:23:33;;;;;;;44.30;21.75;;;;;;;-0.36;95.98;101241.88;20818764;28;20053;-69
2021/11/24 08:33:35;;;;;;;38.25;19.33;;;;;;;-0.07;95.14;101226.78;20786765;28;20045;-68
2021/11/24 08:43:38;;;;;;;39.15;19.63;;;;;;;0.11;94.65;101214.63;20868611;28;20052;-68
2021/11/24 08:53:39;;;;;;;36.78;18.70;;;;;;;0.25;94.22;101203.19;20870396;28;20045;-69
2021/11/24 09:03:41;;;;;;;36.75;18.88;;;;;;;0.53;93.31;101196.50;20832935;28;20041;-68
2021/11/24 09:13:42;;;;;;;32.47;16.63;;;;;;;0.95;92.01;101178.25;20858885;28;20056;-68
2021/11/24 09:23:45;;;;;;;34.03;16.90;;;;;;;1.28;90.96;101170.81;20914352;28;20496;-68
2021/11/24 09:33:47;;;;;;;31.02;15.52;;;;;;;1.53;89.53;101167.34;20904349;28;20049;-68
2021/11/24 09:43:51;;;;;;;28.13;15.68;;;;;;;1.76;89.13;101150.03;20893508;28;20466;-70
2021/11/24 09:53:53;;;;;;;26.40;14.75;;;;;;;2.10;87.80;101141.63;20904154;28;20049;-71
2021/11/24 10:03:55;;;;;;;23.55;13.40;;;;;;;2.23;86.04;101123.09;20902321;28;20045;-70
2021/11/24 10:13:58;;;;;;;23.90;13.93;;;;;;;2.46;86.59;101104.81;20901237;28;20049;-70
2021/11/24 10:24:06;;;;;;;24.20;13.23;;;;;;;2.46;85.32;101073.78;20900738;28;20053;-71
2021/11/24 10:34:18;;;;;;;24.13;12.63;;;;;;;2.50;85.14;101050.66;20899609;28;20049;-70
2021/11/24 10:44:28;;;;;;;23.23;12.70;;;;;;;2.58;83.69;101038.78;20898203;28;20056;-70
2021/11/24 10:54:29;;;;;;;20.45;11.30;;;;;;;2.93;81.89;101025.94;20899535;28;20052;-71
2021/11/24 11:04:31;;;;;;;17.30;10.30;;;;;;;3.37;81.11;101001.97;20896515;28;20045;-70
2021/11/24 11:14:33;;;;;;;15.82;9.00;;;;;;;3.74;79.03;100989.00;20889415;28;20061;-71
2021/11/24 11:24:34;;;;;;;18.27;9.57;;;;;;;3.80;76.82;100973.59;20822930;28;20053;-71
2021/11/24 11:34:37;;;;;;;16.85;9.10;;;;;;;3.82;77.55;100966.72;20811045;28;20453;-71
2021/11/24 11:44:40;;;;;;;18.33;8.75;;;;;;;3.90;76.50;100930.63;20812315;28;20062;-71
2021/11/24 11:55:22;;;;;;;15.52;7.90;;;;;;;4.33;77.30;100908.97;20811720;28;20453;-69
2021/11/24 12:05:24;;;;;;;15.93;8.80;;;;;;;4.77;74.81;100892.41;20810132;28;20465;-71
2021/11/24 12:15:28;;;;;;;18.52;10.55;;;;;;;4.85;72.63;100867.47;20858111;28;20482;-70
2021/11/24 12:25:31;;;;;;;17.67;10.00;;;;;;;4.51;73.89;100851.38;20893856;28;20065;-67
2021/11/24 12:35:39;;;;;;;17.27;9.85;;;;;;;4.12;74.92;100846.41;20892645;28;20080;-72
2021/11/24 12:46:20;;;;;;;19.10;10.38;;;;;;;4.06;75.73;100822.94;20878056;28;20076;-72
2021/11/24 12:56:25;;;;;;;16.42;9.55;;;;;;;3.98;76.38;100802.09;20876799;28;20044;-72
2021/11/24 13:06:28;;;;;;;15.77;9.30;;;;;;;3.96;75.95;100808.09;20897276;28;20910;-72
2021/11/24 13:16:34;;;;;;;17.60;9.90;;;;;;;4.01;76.72;100776.22;20907253;28;20088;-72
2021/11/24 13:26:36;;;;;;;17.00;10.10;;;;;;;3.94;77.08;100755.41;20908138;28;20573;-73
2021/11/24 13:36:45;;;;;;;18.65;10.48;;;;;;;3.89;77.74;100732.00;20862216;28;20053;-73
2021/11/24 13:46:50;;;;;;;16.48;9.00;;;;;;;3.83;77.51;100725.00;20856343;28;20486;-72
2021/11/24 13:56:54;;;;;;;16.77;9.00;;;;;;;3.78;77.63;100705.91;20843186;28;20050;-72
2021/11/24 14:07:07;;;;;;;21.93;10.37;;;;;;;3.71;77.99;100698.88;20821059;28;20049;-73
2021/11/24 14:17:10;;;;;;;15.98;8.77;;;;;;;3.84;77.80;100682.72;20880115;28;20276;-71
2021/11/24 14:27:12;;;;;;;19.80;10.73;;;;;;;3.76;77.71;100670.47;20901971;28;20103;-72
2021/11/24 14:37:13;;;;;;;19.02;10.35;;;;;;;3.79;77.81;100666.22;20900282;28;20053;-70
2021/11/24 14:47:15;;;;;;;16.90;9.65;;;;;;;3.46;79.23;100655.31;20900375;28;20045;-71
2021/11/24 14:57:19;;;;;;;17.38;9.63;;;;;;;3.33;79.86;100649.91;20885521;28;20045;-71
2021/11/24 15:07:22;;;;;;;21.40;11.57;;;;;;;3.19;80.22;100635.84;20845682;28;20530;-71
2021/11/24 15:17:23;;;;;;;21.50;11.85;;;;;;;3.00;81.01;100626.88;20878339;28;20102;-67
2021/11/24 15:27:25;;;;;;;20.15;11.40;;;;;;;2.90;81.10;100624.09;20895915;28;20107;-68
2021/11/24 15:37:26;;;;;;;21.85;10.40;;;;;;;2.67;81.82;100624.53;20894841;28;20114;-70
2021/11/24 15:47:28;;;;;;;20.73;10.70;;;;;;;2.18;84.33;100600.25;20892885;28;20460;-70
2021/11/24 15:57:29;;;;;;;16.10;9.20;;;;;;;1.85;86.60;100596.94;20891732;28;20070;-70
2021/11/24 16:07:31;;;;;;;18.92;10.60;;;;;;;1.58;88.22;100598.03;20893603;28;20049;-70
2021/11/24 16:17:33;;;;;;;17.95;9.77;;;;;;;1.42;87.89;100594.22;20827893;28;20053;-70
2021/11/24 16:27:34;;;;;;;49.40;24.10;;;;;;;1.17;88.38;100582.44;20809032;28;20045;-70
2021/11/24 16:37:36;;;;;;;26.20;15.00;;;;;;;0.96;88.65;100585.34;20808351;28;20536;-69
2021/11/24 16:47:38;;;;;;;23.58;14.05;;;;;;;0.76;89.40;100564.19;20826316;28;20560;-70
2021/11/24 16:57:40;;;;;;;27.92;15.85;;;;;;;0.57;90.27;100543.91;20824739;28;20573;-70
2021/11/24 17:07:42;;;;;;;30.85;17.83;;;;;;;0.43;90.99;100541.00;20822686;28;20100;-70
2021/11/24 17:17:45;;;;;;;33.65;19.55;;;;;;;0.48;91.09;100523.97;20862728;28;20049;-69
2021/11/24 17:27:47;;;;;;;39.58;21.85;;;;;;;0.49;90.35;100512.81;20823795;28;20049;-70
2021/11/24 17:37:50;;;;;;;32.20;19.23;;;;;;;0.48;90.07;100497.31;20820489;28;20139;-71
2021/11/24 17:47:51;;;;;;;29.10;16.20;;;;;;;0.24;90.44;100476.94;20821656;28;20047;-69
2021/11/24 17:57:53;;;;;;;25.83;13.48;;;;;;;0.01;91.59;100468.56;20820702;28;20050;-69
2021/11/24 18:07:55;;;;;;;34.83;17.92;;;;;;;-0.09;91.77;100446.00;20817748;28;20080;-70
2021/11/24 18:17:57;;;;;;;32.80;18.90;;;;;;;-0.16;91.59;100434.63;20873514;28;20044;-69
2021/11/24 18:27:58;;;;;;;27.48;15.88;;;;;;;0.02;92.10;100430.84;20899050;28;20099;-70
2021/11/24 18:38:00;;;;;;;50.47;25.23;;;;;;;0.39;92.01;100409.50;20896899;28;20110;-70
2021/11/24 18:48:02;;;;;;;56.80;27.20;;;;;;;0.81;90.18;100383.03;20899294;28;20045;-71
2021/11/24 18:58:23;;;;;;;42.58;21.48;;;;;;;1.03;87.06;100385.25;20859117;28;20087;-71
2021/11/24 19:08:25;;;;;;;38.38;20.23;;;;;;;1.04;85.81;100371.53;20810630;28;20502;-70
2021/11/24 19:18:27;;;;;;;38.90;19.33;;;;;;;0.96;85.75;100349.88;20888200;28;20482;-70
2021/11/24 19:28:28;;;;;;;36.45;19.05;;;;;;;0.96;85.62;100343.03;20896319;28;20620;-70
2021/11/24 19:38:30;;;;;;;58.47;26.60;;;;;;;0.90;85.23;100342.00;20892974;28;20118;-70
2021/11/24 19:48:32;;;;;;;43.22;21.05;;;;;;;0.93;84.44;100342.06;20893357;28;20045;-70
2021/11/24 19:58:33;;;;;;;39.42;20.25;;;;;;;0.90;84.11;100336.84;20871512;28;20045;-70
2021/11/24 20:08:35;;;;;;;35.15;18.45;;;;;;;0.86;84.41;100327.28;20810140;28;20057;-70
2021/11/24 20:18:37;;;;;;;40.13;18.35;;;;;;;0.87;84.37;100321.31;20882355;28;20053;-70
2021/11/24 20:28:44;;;;;;;47.42;21.42;;;;;;;0.89;84.30;100311.91;20891178;28;20097;-70
2021/11/24 20:38:46;;;;;;;36.03;17.80;;;;;;;0.75;84.95;100312.47;20890417;28;20480;-70
2021/11/24 20:48:47;;;;;;;35.85;16.60;;;;;;;0.79;84.94;100304.81;20890854;28;20048;-70
2021/11/24 20:58:51;;;;;;;33.50;16.65;;;;;;;0.83;85.35;100301.47;20890197;28;20053;-70
2021/11/24 21:08:53;;;;;;;40.45;16.83;;;;;;;0.82;85.47;100281.69;20862391;28;20049;-70
2021/11/24 21:18:54;;;;;;;41.28;19.40;;;;;;;0.88;85.11;100277.53;20812587;28;20049;-71
2021/11/24 21:28:56;;;;;;;43.78;18.63;;;;;;;1.00;84.78;100256.28;20814795;28;20049;-71
2021/11/24 21:38:57;;;;;;;37.45;17.80;;;;;;;1.03;85.88;100249.50;20821251;28;20071;-70
2021/11/24 21:48:59;;;;;;;40.20;17.65;;;;;;;1.11;84.90;100236.78;20819384;28;20053;-71
2021/11/24 21:59:00;;;;;;;36.42;16.90;;;;;;;1.04;86.08;100232.31;20819646;28;20111;-71
2021/11/24 22:19:22;;;;;;;38.05;16.50;;;;;;;1.05;86.04;100216.00;20897684;28;20049;-70
2021/11/24 22:29:24;;;;;;;35.95;17.25;;;;;;;1.01;86.10;100221.97;20897147;28;20045;-70
2021/11/24 22:39:25;;;;;;;37.95;16.80;;;;;;;1.06;86.01;100210.03;20896421;28;20053;-70
2021/11/24 22:49:27;;;;;;;33.03;16.15;;;;;;;0.92;86.80;100189.13;20898401;28;20413;-71
2021/11/24 22:59:28;;;;;;;33.58;16.98;;;;;;;0.95;87.31;100183.16;20898144;28;20562;-71
2021/11/24 23:09:31;;;;;;;39.08;16.98;;;;;;;0.96;87.10;100180.63;20902450;28;20056;-69
2021/11/24 23:19:32;;;;;;;38.80;17.35;;;;;;;1.02;87.35;100167.84;20903730;28;20103;-70
2021/11/24 23:29:34;;;;;;;36.05;17.08;;;;;;;1.07;87.25;100165.34;20901733;28;20048;-71
2021/11/24 23:39:38;;;;;;;33.95;16.30;;;;;;;1.04;87.31;100157.53;20901567;28;20083;-71
2021/11/24 23:49:40;;;;;;;38.60;17.17;;;;;;;1.06;86.99;100147.28;20901265;28;20049;-71
2021/11/24 23:59:41;;;;;;;38.22;16.75;;;;;;;1.16;87.15;100139.75;20900195;28;20490;-71
